Time;durP1;ratioP1;P1;durP2;ratioP2;P2;SDS_P1;SDS_P2;PMS_P1;PMS_P2;Temp;Humidity;BMP_temperature;BMP_pressure;BME280_temperature;BME280_humidity;BME280_pressure;Samples;Min_cycle;Max_cycle;Signal;HPM_P1;HPM_P2
2022/01/22 00:02:21;;;;;;;3.97;1.63;;;;;;;;;;5018439;28;20414;-75
2022/01/22 00:04:47;;;;;;;3.25;1.55;;;;;;;;;;5035425;28;20043;-75
2022/01/22 00:07:12;;;;;;;3.58;1.58;;;;;;;;;;5016169;28;20045;-76
2022/01/22 00:09:40;;;;;;;3.25;1.40;;;;;;;;;;5019057;28;20037;-75
2022/01/22 00:12:07;;;;;;;3.75;1.70;;;;;;;;;;5037906;28;20078;-75
2022/01/22 00:14:34;;;;;;;3.53;1.77;;;;;;;;;;5024904;28;20033;-75
2022/01/22 00:17:00;;;;;;;3.75;1.73;;;;;;;;;;5032997;28;20053;-75
2022/01/22 00:19:26;;;;;;;4.28;1.48;;;;;;;;;;5048622;28;20108;-75
2022/01/22 00:21:51;;;;;;;4.28;1.70;;;;;;;;;;5019211;28;20195;-75
2022/01/22 00:24:17;;;;;;;2.92;1.42;;;;;;;;;;5041937;28;20041;-75
2022/01/22 00:26:42;;;;;;;3.47;1.30;;;;;;;;;;5031807;28;20036;-75
2022/01/22 00:29:09;;;;;;;3.55;1.65;;;;;;;;;;5036801;28;20056;-75
2022/01/22 00:31:35;;;;;;;3.67;1.90;;;;;;;;;;5055196;28;20093;-75
2022/01/22 00:34:00;;;;;;;4.35;1.63;;;;;;;;;;5052859;28;20116;-75
2022/01/22 00:36:26;;;;;;;4.80;1.92;;;;;;;;;;5020673;28;20114;-75
2022/01/22 00:38:51;;;;;;;3.65;1.83;;;;;;;;;;5038071;28;20446;-75
2022/01/22 00:41:17;;;;;;;3.65;1.63;;;;;;;;;;5004504;28;20495;-75
2022/01/22 00:43:42;;;;;;;3.22;1.30;;;;;;;;;;5023433;28;20060;-75
2022/01/22 00:46:07;;;;;;;4.93;2.15;;;;;;;;;;5052898;28;20517;-75
2022/01/22 00:48:33;;;;;;;4.25;1.60;;;;;;;;;;5021947;28;20414;-75
2022/01/22 00:51:00;;;;;;;3.78;1.67;;;;;;;;;;5039615;28;20098;-75
2022/01/22 00:53:25;;;;;;;4.15;1.58;;;;;;;;;;5022910;28;20537;-75
2022/01/22 00:55:51;;;;;;;4.85;1.48;;;;;;;;;;5053325;28;20036;-75
2022/01/22 00:58:16;;;;;;;3.55;1.50;;;;;;;;;;5052291;28;20115;-75
2022/01/22 01:00:42;;;;;;;3.45;1.40;;;;;;;;;;5039164;28;20036;-75
2022/01/22 01:03:07;;;;;;;5.90;1.90;;;;;;;;;;5039248;28;20036;-75
2022/01/22 01:05:33;;;;;;;5.25;1.70;;;;;;;;;;5019945;28;20052;-74
2022/01/22 01:07:58;;;;;;;5.70;1.73;;;;;;;;;;5020985;28;20119;-75
2022/01/22 01:10:24;;;;;;;5.07;1.83;;;;;;;;;;5034852;28;20067;-75
2022/01/22 01:12:50;;;;;;;3.15;1.40;;;;;;;;;;5004853;28;20388;-75
2022/01/22 01:33:58;;;;;;;4.50;1.42;;;;;;;;;;5044812;28;20530;-75
2022/01/22 01:36:23;;;;;;;3.55;1.45;;;;;;;;;;5035637;28;20033;-75
2022/01/22 01:38:54;;;;;;;5.10;1.70;;;;;;;;;;5053484;28;20047;-75
2022/01/22 01:41:29;;;;;;;7.57;2.63;;;;;;;;;;5039411;28;20048;-75
2022/01/22 01:43:54;;;;;;;5.28;1.63;;;;;;;;;;5042276;28;20036;-75
2022/01/22 01:46:20;;;;;;;4.75;2.00;;;;;;;;;;5022114;28;20043;-75
2022/01/22 01:48:46;;;;;;;3.33;1.40;;;;;;;;;;4988939;28;20403;-75
2022/01/22 01:51:12;;;;;;;4.00;1.67;;;;;;;;;;5038932;28;20050;-75
2022/01/22 01:58:55;;;;;;;3.75;1.55;;;;;;;;;;5025525;28;20036;-75
2022/01/22 02:01:20;;;;;;;4.07;1.42;;;;;;;;;;5033787;28;20594;-75
2022/01/22 02:03:45;;;;;;;2.90;1.50;;;;;;;;;;5018644;28;20041;-74
2022/01/22 02:06:11;;;;;;;3.38;1.33;;;;;;;;;;5020335;28;20037;-75
2022/01/22 02:08:36;;;;;;;4.65;1.60;;;;;;;;;;5030030;28;20413;-75
2022/01/22 02:11:04;;;;;;;3.72;1.50;;;;;;;;;;5055169;28;20059;-75
2022/01/22 02:24:44;;;;;;;4.13;1.40;;;;;;;;;;5039659;28;20051;-75
2022/01/22 02:27:09;;;;;;;3.65;1.30;;;;;;;;;;5022472;28;20036;-75
2022/01/22 02:29:35;;;;;;;4.45;1.20;;;;;;;;;;5021719;28;20045;-75
2022/01/22 02:34:57;;;;;;;3.85;1.20;;;;;;;;;;5017307;28;20048;-75
2022/01/22 02:37:25;;;;;;;3.50;1.30;;;;;;;;;;5022017;28;20044;-75
2022/01/22 02:40:06;;;;;;;2.75;1.40;;;;;;;;;;5042613;28;20082;-75
2022/01/22 02:42:33;;;;;;;3.97;1.35;;;;;;;;;;5057313;28;20072;-75
2022/01/22 02:44:58;;;;;;;5.72;1.63;;;;;;;;;;5032505;28;20029;-75
2022/01/22 02:47:24;;;;;;;3.80;1.15;;;;;;;;;;5021245;28;20041;-75
2022/01/22 02:49:49;;;;;;;3.72;1.33;;;;;;;;;;5026735;28;20112;-75
2022/01/22 02:52:17;;;;;;;3.35;1.42;;;;;;;;;;5035701;28;20037;-75
2022/01/22 02:54:43;;;;;;;3.30;1.20;;;;;;;;;;5020358;28;20518;-75
2022/01/22 02:57:09;;;;;;;3.53;1.42;;;;;;;;;;5019240;28;20089;-75
2022/01/22 02:59:34;;;;;;;3.50;1.38;;;;;;;;;;5008241;28;20075;-75
2022/01/22 03:02:01;;;;;;;2.88;1.27;;;;;;;;;;5030192;28;20040;-75
2022/01/22 03:04:26;;;;;;;3.70;1.23;;;;;;;;;;5023071;28;20037;-75
2022/01/22 03:06:52;;;;;;;3.90;1.10;;;;;;;;;;5020090;28;20059;-75
2022/01/22 03:09:25;;;;;;;2.60;1.13;;;;;;;;;;5022356;28;20063;-75
2022/01/22 03:27:26;;;;;;;3.70;1.63;;;;;;;;;;5036874;28;20119;-75
2022/01/22 03:29:51;;;;;;;2.42;1.25;;;;;;;;;;5023637;28;20041;-75
2022/01/22 03:32:17;;;;;;;2.67;1.10;;;;;;;;;;5037190;28;20098;-75
2022/01/22 03:34:54;;;;;;;3.63;1.50;;;;;;;;;;5034033;28;20033;-75
2022/01/22 03:37:20;;;;;;;3.97;1.50;;;;;;;;;;5035386;28;20041;-75
2022/01/22 03:39:45;;;;;;;3.05;1.52;;;;;;;;;;5018367;28;20094;-75
2022/01/22 03:42:11;;;;;;;2.92;1.25;;;;;;;;;;5017500;28;20045;-75
2022/01/22 03:44:36;;;;;;;3.10;1.40;;;;;;;;;;5017265;28;20442;-75
2022/01/22 03:47:02;;;;;;;3.65;1.20;;;;;;;;;;5001113;28;20049;-75
2022/01/22 03:49:28;;;;;;;3.25;1.27;;;;;;;;;;5022310;28;20036;-75
2022/01/22 03:51:53;;;;;;;2.78;1.10;;;;;;;;;;5050245;28;20094;-75
2022/01/22 03:54:18;;;;;;;2.58;1.05;;;;;;;;;;5036096;28;20423;-75
2022/01/22 03:56:46;;;;;;;3.42;1.15;;;;;;;;;;5017838;28;20502;-75
2022/01/22 03:59:12;;;;;;;3.67;1.40;;;;;;;;;;5033237;28;20029;-75
2022/01/22 04:04:20;;;;;;;4.97;1.02;;;;;;;;;;5052729;28;20044;-76
2022/01/22 04:09:29;;;;;;;3.25;1.55;;;;;;;;;;5041290;28;20043;-75
2022/01/22 04:11:54;;;;;;;3.20;0.98;;;;;;;;;;5035760;28;20110;-75
2022/01/22 04:14:25;;;;;;;3.67;1.27;;;;;;;;;;5001004;28;20025;-76
2022/01/22 04:17:03;;;;;;;3.45;1.35;;;;;;;;;;5002289;28;20047;-75
2022/01/22 04:24:56;;;;;;;3.00;1.50;;;;;;;;;;5023531;28;20029;-75
2022/01/22 04:27:24;;;;;;;2.88;0.95;;;;;;;;;;5016851;28;20047;-75
2022/01/22 04:29:51;;;;;;;2.63;1.25;;;;;;;;;;5007304;28;20471;-75
2022/01/22 04:32:16;;;;;;;4.68;1.50;;;;;;;;;;5017038;28;20037;-75
2022/01/22 04:34:42;;;;;;;2.97;1.23;;;;;;;;;;5041353;28;20407;-75
2022/01/22 04:37:07;;;;;;;4.03;1.13;;;;;;;;;;5008819;28;20037;-75
2022/01/22 04:39:33;;;;;;;2.47;1.25;;;;;;;;;;5036779;28;20090;-75
2022/01/22 04:41:58;;;;;;;3.08;1.08;;;;;;;;;;5034097;28;20041;-75
2022/01/22 04:44:27;;;;;;;4.72;1.52;;;;;;;;;;5033203;28;20040;-75
2022/01/22 04:47:03;;;;;;;2.80;1.40;;;;;;;;;;5027401;28;20033;-75
2022/01/22 04:52:39;;;;;;;3.85;1.60;;;;;;;;;;5039259;28;20067;-75
2022/01/22 04:55:06;;;;;;;3.60;1.42;;;;;;;;;;5026019;28;20033;-75
2022/01/22 04:57:40;;;;;;;4.13;1.20;;;;;;;;;;5018254;28;20041;-76
2022/01/22 05:00:08;;;;;;;2.58;1.20;;;;;;;;;;5014373;28;20432;-76
2022/01/22 05:02:34;;;;;;;3.17;1.10;;;;;;;;;;5000150;28;20041;-75
2022/01/22 05:04:59;;;;;;;2.78;1.10;;;;;;;;;;5016436;28;20059;-75
2022/01/22 05:07:25;;;;;;;3.20;1.27;;;;;;;;;;5040835;28;20191;-75
2022/01/22 05:09:50;;;;;;;2.88;1.20;;;;;;;;;;5037568;28;20124;-75
2022/01/22 05:12:15;;;;;;;3.33;1.55;;;;;;;;;;5038485;28;20044;-76
2022/01/22 05:14:41;;;;;;;2.80;0.95;;;;;;;;;;5073961;28;20032;-75
2022/01/22 05:17:08;;;;;;;2.63;1.00;;;;;;;;;;5040072;28;20460;-75
2022/01/22 05:22:18;;;;;;;2.47;1.15;;;;;;;;;;5030693;28;20518;-75
2022/01/22 05:24:48;;;;;;;3.13;1.35;;;;;;;;;;5023713;28;20041;-76
2022/01/22 05:27:37;;;;;;;4.22;1.75;;;;;;;;;;5038810;28;20039;-75
2022/01/22 05:33:01;;;;;;;3.17;1.30;;;;;;;;;;5044342;28;20032;-75
2022/01/22 05:38:11;;;;;;;3.65;1.80;;;;;;;;;;5024896;28;20039;-75
2022/01/22 05:40:36;;;;;;;2.35;1.23;;;;;;;;;;5020237;28;20515;-75
2022/01/22 05:43:05;;;;;;;3.25;1.35;;;;;;;;;;5027878;28;20036;-76
2022/01/22 05:45:30;;;;;;;3.20;1.25;;;;;;;;;;5035272;28;20036;-75
2022/01/22 05:47:56;;;;;;;3.13;1.30;;;;;;;;;;5036183;28;20037;-75
2022/01/22 05:50:32;;;;;;;2.70;1.30;;;;;;;;;;5034351;28;20415;-75
2022/01/22 05:53:06;;;;;;;2.50;1.10;;;;;;;;;;5023117;28;20087;-75
2022/01/22 06:00:41;;;;;;;3.72;1.15;;;;;;;;;;5042136;28;20461;-75
2022/01/22 06:03:07;;;;;;;2.83;1.52;;;;;;;;;;5022940;28;20032;-75
2022/01/22 06:05:32;;;;;;;3.08;1.50;;;;;;;;;;5020568;28;20500;-75
2022/01/22 06:07:58;;;;;;;4.43;1.70;;;;;;;;;;5053165;28;20036;-75
2022/01/22 06:10:28;;;;;;;3.30;1.75;;;;;;;;;;5005500;28;20048;-75
2022/01/22 06:13:09;;;;;;;3.30;1.42;;;;;;;;;;5026063;28;20036;-76
2022/01/22 06:15:35;;;;;;;3.70;1.70;;;;;;;;;;5009615;28;20093;-75
2022/01/22 06:18:00;;;;;;;1.92;1.42;;;;;;;;;;5037752;28;20036;-75
2022/01/22 06:20:26;;;;;;;2.40;1.20;;;;;;;;;;5038172;28;20040;-75
2022/01/22 06:22:51;;;;;;;3.50;1.65;;;;;;;;;;5021406;28;20407;-76
2022/01/22 06:25:17;;;;;;;3.30;1.50;;;;;;;;;;5034035;28;20041;-76
2022/01/22 06:27:42;;;;;;;2.58;1.45;;;;;;;;;;5017200;28;20458;-75
2022/01/22 06:30:08;;;;;;;3.80;1.50;;;;;;;;;;5034299;28;20055;-75
2022/01/22 06:32:34;;;;;;;1.98;1.27;;;;;;;;;;5035758;28;20098;-75
2022/01/22 06:34:59;;;;;;;4.45;1.73;;;;;;;;;;5042494;28;20119;-75
2022/01/22 06:37:25;;;;;;;4.25;1.70;;;;;;;;;;5004131;28;20396;-75
2022/01/22 06:42:32;;;;;;;2.38;1.40;;;;;;;;;;5037832;28;20049;-75
2022/01/22 06:44:58;;;;;;;2.83;1.67;;;;;;;;;;5053449;28;20127;-76
2022/01/22 06:47:24;;;;;;;3.92;1.65;;;;;;;;;;5036954;28;20124;-75
2022/01/22 06:49:49;;;;;;;3.70;1.45;;;;;;;;;;5017051;28;20051;-75
2022/01/22 06:52:15;;;;;;;3.13;1.63;;;;;;;;;;5032335;28;20044;-76
2022/01/22 06:54:42;;;;;;;3.28;1.73;;;;;;;;;;5019379;28;20037;-76
2022/01/22 06:57:07;;;;;;;3.28;1.70;;;;;;;;;;5020105;28;20045;-75
2022/01/22 06:59:33;;;;;;;3.20;1.75;;;;;;;;;;5017090;28;20058;-76
2022/01/22 07:01:58;;;;;;;2.22;1.30;;;;;;;;;;5050675;28;20049;-76
2022/01/22 07:04:24;;;;;;;3.55;1.90;;;;;;;;;;5018138;28;20041;-75
2022/01/22 07:06:49;;;;;;;4.47;1.77;;;;;;;;;;5025102;28;20132;-76
2022/01/22 07:09:15;;;;;;;3.03;1.42;;;;;;;;;;5017997;28;20502;-73
2022/01/22 07:11:40;;;;;;;4.45;1.52;;;;;;;;;;5027457;28;20485;-73
2022/01/22 07:14:05;;;;;;;2.95;1.58;;;;;;;;;;5034518;28;20422;-73
2022/01/22 07:16:31;;;;;;;3.55;2.15;;;;;;;;;;5034608;28;20036;-73
2022/01/22 07:19:00;;;;;;;3.20;1.83;;;;;;;;;;5035867;28;20051;-73
2022/01/22 07:21:28;;;;;;;2.78;1.50;;;;;;;;;;5021586;28;20118;-73
2022/01/22 07:26:19;;;;;;;3.83;1.88;;;;;;;;;;5036837;28;20063;-73
2022/01/22 07:28:44;;;;;;;3.13;1.70;;;;;;;;;;5031046;28;20045;-73
2022/01/22 07:31:10;;;;;;;2.70;1.75;;;;;;;;;;5024392;28;20414;-73
2022/01/22 07:33:36;;;;;;;3.17;1.50;;;;;;;;;;5036885;28;20048;-73
2022/01/22 07:36:05;;;;;;;3.33;1.48;;;;;;;;;;5017255;28;20045;-73
2022/01/22 07:38:30;;;;;;;4.78;1.92;;;;;;;;;;5019290;28;20040;-73
2022/01/22 07:40:56;;;;;;;4.38;1.90;;;;;;;;;;5008545;28;20159;-73
2022/01/22 07:43:21;;;;;;;3.25;1.80;;;;;;;;;;5034225;28;20374;-73
2022/01/22 07:45:47;;;;;;;3.55;1.65;;;;;;;;;;5001042;28;20032;-73
2022/01/22 07:48:12;;;;;;;4.70;2.25;;;;;;;;;;5029442;28;20083;-73
2022/01/22 07:50:37;;;;;;;4.50;1.77;;;;;;;;;;5033933;28;20033;-73
2022/01/22 07:53:03;;;;;;;5.40;2.63;;;;;;;;;;5030389;28;20063;-73
2022/01/22 07:55:29;;;;;;;4.35;1.95;;;;;;;;;;5053679;28;20082;-72
2022/01/22 07:57:54;;;;;;;3.83;1.67;;;;;;;;;;5045008;28;20115;-73
2022/01/22 08:00:20;;;;;;;4.43;1.63;;;;;;;;;;5017205;28;20025;-72
2022/01/22 08:02:45;;;;;;;3.60;2.35;;;;;;;;;;5037341;28;20041;-73
2022/01/22 08:05:11;;;;;;;3.90;1.88;;;;;;;;;;5017282;28;20036;-73
2022/01/22 08:07:36;;;;;;;3.28;1.73;;;;;;;;;;5018098;28;20515;-73
2022/01/22 08:10:02;;;;;;;3.03;2.20;;;;;;;;;;5017289;28;20064;-73
2022/01/22 08:12:28;;;;;;;5.45;2.03;;;;;;;;;;5023486;28;20051;-73
2022/01/22 08:14:54;;;;;;;4.95;2.22;;;;;;;;;;5032891;28;20476;-75
2022/01/22 08:17:19;;;;;;;4.82;1.70;;;;;;;;;;5041742;28;20455;-75
2022/01/22 08:19:45;;;;;;;3.28;1.70;;;;;;;;;;5020590;28;20048;-75
2022/01/22 08:22:11;;;;;;;4.60;1.70;;;;;;;;;;5005905;28;20033;-75
2022/01/22 08:24:36;;;;;;;3.28;1.98;;;;;;;;;;5000686;28;20510;-75
2022/01/22 08:27:34;;;;;;;2.80;1.70;;;;;;;;;;5018198;28;20037;-74
2022/01/22 08:29:50;;;;;;;4.45;2.50;;;;;;;;;;5019866;28;20104;-75
2022/01/22 08:37:34;;;;;;;3.75;1.80;;;;;;;;;;5024719;28;20525;-75
2022/01/22 08:40:00;;;;;;;4.40;2.22;;;;;;;;;;5036422;28;20044;-75
2022/01/22 08:42:26;;;;;;;3.92;2.03;;;;;;;;;;5038852;28;20583;-74
2022/01/22 08:44:51;;;;;;;4.35;2.42;;;;;;;;;;5040349;28;20033;-75
2022/01/22 08:47:17;;;;;;;3.72;1.90;;;;;;;;;;5040447;28;20509;-75
2022/01/22 08:49:42;;;;;;;4.93;2.15;;;;;;;;;;5021818;28;20029;-76
2022/01/22 08:52:12;;;;;;;4.43;2.00;;;;;;;;;;5037016;28;20040;-76
2022/01/22 08:54:38;;;;;;;3.65;2.00;;;;;;;;;;5005211;28;20051;-75
2022/01/22 08:57:03;;;;;;;3.97;1.85;;;;;;;;;;5020479;28;20033;-76
2022/01/22 08:59:29;;;;;;;5.63;2.20;;;;;;;;;;5020377;28;20068;-75
2022/01/22 09:01:54;;;;;;;4.15;2.08;;;;;;;;;;5020486;28;20429;-75
2022/01/22 09:04:20;;;;;;;4.90;2.80;;;;;;;;;;5020378;28;20041;-76
2022/01/22 09:06:45;;;;;;;4.28;1.80;;;;;;;;;;5020532;28;20398;-76
2022/01/22 09:09:12;;;;;;;5.07;2.10;;;;;;;;;;5047390;28;20089;-76
2022/01/22 09:11:39;;;;;;;5.35;1.90;;;;;;;;;;5004518;28;20067;-74
2022/01/22 09:14:05;;;;;;;4.20;2.15;;;;;;;;;;5032133;28;20044;-73
2022/01/22 09:16:31;;;;;;;5.78;2.00;;;;;;;;;;5056292;28;20513;-74
2022/01/22 09:19:01;;;;;;;8.25;2.83;;;;;;;;;;5039959;28;20045;-74
2022/01/22 09:21:26;;;;;;;12.02;3.58;;;;;;;;;;5056198;28;20024;-74
2022/01/22 09:23:52;;;;;;;8.55;3.67;;;;;;;;;;5036009;28;20037;-74
2022/01/22 09:26:19;;;;;;;9.73;3.85;;;;;;;;;;5055245;28;20037;-73
2022/01/22 09:28:46;;;;;;;8.48;3.50;;;;;;;;;;5053781;28;20036;-73
2022/01/22 09:31:12;;;;;;;7.70;3.03;;;;;;;;;;5056435;28;20040;-74
2022/01/22 09:33:38;;;;;;;7.47;2.95;;;;;;;;;;5055798;28;20045;-74
2022/01/22 09:36:04;;;;;;;7.72;3.53;;;;;;;;;;5014864;28;20417;-74
2022/01/22 09:38:29;;;;;;;7.80;2.88;;;;;;;;;;5022923;28;20041;-74
2022/01/22 09:40:55;;;;;;;7.03;3.08;;;;;;;;;;5022920;28;20048;-74
2022/01/22 09:43:20;;;;;;;8.88;3.42;;;;;;;;;;5037838;28;20040;-74
2022/01/22 09:45:46;;;;;;;9.30;3.22;;;;;;;;;;5040850;28;20041;-74
2022/01/22 09:48:11;;;;;;;7.38;3.15;;;;;;;;;;5019586;28;20040;-74
2022/01/22 09:50:36;;;;;;;9.10;3.28;;;;;;;;;;5053613;28;20033;-74
2022/01/22 09:53:02;;;;;;;9.23;3.28;;;;;;;;;;5018877;28;20086;-74
2022/01/22 09:55:28;;;;;;;6.28;2.88;;;;;;;;;;5022510;28;20041;-73
2022/01/22 09:57:55;;;;;;;9.52;3.22;;;;;;;;;;5073747;28;20040;-74
2022/01/22 10:00:22;;;;;;;8.45;2.42;;;;;;;;;;5039166;28;20043;-74
2022/01/22 10:02:49;;;;;;;5.90;2.65;;;;;;;;;;5039301;28;20087;-74
2022/01/22 10:05:37;;;;;;;7.82;3.15;;;;;;;;;;5038992;28;20068;-74
2022/01/22 10:08:24;;;;;;;9.45;3.17;;;;;;;;;;5043404;28;20036;-74
2022/01/22 10:10:50;;;;;;;6.70;2.78;;;;;;;;;;5056525;28;20033;-74
2022/01/22 10:13:36;;;;;;;7.45;3.08;;;;;;;;;;5025098;28;20499;-74
2022/01/22 10:16:16;;;;;;;6.53;2.75;;;;;;;;;;5018769;28;20056;-74
2022/01/22 10:18:42;;;;;;;11.30;4.40;;;;;;;;;;5018742;28;20036;-74
2022/01/22 10:21:12;;;;;;;7.20;3.70;;;;;;;;;;5035559;28;20029;-74
2022/01/22 10:23:41;;;;;;;7.18;4.25;;;;;;;;;;5019130;28;20041;-74
2022/01/22 10:26:11;;;;;;;8.35;3.95;;;;;;;;;;5035536;28;20179;-74
2022/01/22 10:28:38;;;;;;;9.25;4.28;;;;;;;;;;5038323;28;20090;-74
2022/01/22 10:31:06;;;;;;;6.00;3.90;;;;;;;;;;5021538;28;20044;-74
2022/01/22 10:33:33;;;;;;;10.55;4.00;;;;;;;;;;5002916;28;20509;-74
2022/01/22 10:36:24;;;;;;;6.82;3.75;;;;;;;;;;5010775;28;20124;-74
2022/01/22 10:38:51;;;;;;;7.00;3.55;;;;;;;;;;5054476;28;20134;-74
2022/01/22 10:41:19;;;;;;;4.32;3.33;;;;;;;;;;5035567;28;20036;-74
2022/01/22 10:43:54;;;;;;;7.72;3.83;;;;;;;;;;5020236;28;20482;-74
2022/01/22 10:49:09;;;;;;;7.63;3.97;;;;;;;;;;5035623;28;20044;-74
2022/01/22 10:52:00;;;;;;;14.23;4.47;;;;;;;;;;5020104;28;20406;-74
2022/01/22 10:54:32;;;;;;;11.30;3.92;;;;;;;;;;5018181;28;20029;-74
2022/01/22 10:57:13;;;;;;;;;;;;;;;;;;5063544;28;20052;-74
2022/01/22 10:59:58;;;;;;;8.93;4.50;;;;;;;;;;5052122;28;19931;-74
2022/01/22 11:02:37;;;;;;;10.77;4.03;;;;;;;;;;5036165;28;20033;-74
2022/01/22 11:05:03;;;;;;;9.35;3.78;;;;;;;;;;5036293;28;20479;-73
2022/01/22 11:07:29;;;;;;;6.18;3.55;;;;;;;;;;5007510;28;20384;-73
2022/01/22 11:09:54;;;;;;;8.95;4.72;;;;;;;;;;5033389;28;20052;-74
2022/01/22 11:12:20;;;;;;;9.52;3.53;;;;;;;;;;5014883;28;20123;-73
2022/01/22 11:14:45;;;;;;;11.88;3.58;;;;;;;;;;5026860;28;20086;-73
2022/01/22 11:17:11;;;;;;;9.40;4.90;;;;;;;;;;5035232;28;20090;-74
2022/01/22 11:19:40;;;;;;;11.95;4.95;;;;;;;;;;5029028;28;20041;-74
2022/01/22 11:22:12;;;;;;;8.68;3.70;;;;;;;;;;5053960;28;20068;-74
2022/01/22 11:24:42;;;;;;;12.95;4.00;;;;;;;;;;5068280;28;20431;-73
2022/01/22 11:27:10;;;;;;;8.48;4.28;;;;;;;;;;5031277;28;20029;-73
2022/01/22 11:29:45;;;;;;;9.10;4.40;;;;;;;;;;5053160;28;20059;-73
2022/01/22 11:32:12;;;;;;;7.70;3.08;;;;;;;;;;5034008;28;20035;-73
2022/01/22 11:34:38;;;;;;;8.02;3.95;;;;;;;;;;5024695;28;20445;-73
2022/01/22 11:37:13;;;;;;;9.55;4.60;;;;;;;;;;5031773;28;20029;-73
2022/01/22 11:39:39;;;;;;;7.15;3.40;;;;;;;;;;5054418;28;20033;-73
2022/01/22 11:42:05;;;;;;;7.82;4.18;;;;;;;;;;5041390;28;20040;-73
2022/01/22 11:44:45;;;;;;;9.73;4.32;;;;;;;;;;5034964;28;20441;-73
2022/01/22 11:47:13;;;;;;;9.43;4.25;;;;;;;;;;5036385;28;20037;-73
2022/01/22 11:49:39;;;;;;;10.05;3.72;;;;;;;;;;5021742;28;20037;-73
2022/01/22 11:52:07;;;;;;;9.30;3.85;;;;;;;;;;5024747;28;20094;-73
2022/01/22 11:54:48;;;;;;;9.40;3.53;;;;;;;;;;5048625;28;20045;-73
2022/01/22 11:57:13;;;;;;;8.52;4.18;;;;;;;;;;5018216;28;20036;-73
2022/01/22 11:59:41;;;;;;;8.45;4.15;;;;;;;;;;5017856;28;20629;-73
2022/01/22 12:02:06;;;;;;;9.35;4.47;;;;;;;;;;5018410;28;20052;-73
2022/01/22 12:04:37;;;;;;;7.03;3.78;;;;;;;;;;5033728;28;20484;-73
2022/01/22 12:07:03;;;;;;;8.45;3.45;;;;;;;;;;5051860;28;20037;-75
2022/01/22 12:15:31;;;;;;;8.23;3.85;;;;;;;;;;5051246;28;20107;-76
2022/01/22 12:18:05;;;;;;;6.55;3.28;;;;;;;;;;5046249;28;20121;-76
2022/01/22 12:23:08;;;;;;;7.10;3.97;;;;;;;;;;5064437;28;20119;-75
2022/01/22 12:25:33;;;;;;;;;;;;;;;;;;5056519;28;20045;-74
2022/01/22 12:27:59;;;;;;;9.57;4.03;;;;;;;;;;5069991;28;20449;-75
2022/01/22 12:30:43;;;;;;;7.55;3.03;;;;;;;;;;5057135;28;20298;-74
2022/01/22 12:33:12;;;;;;;8.70;3.58;;;;;;;;;;5039360;28;20086;-74
2022/01/22 12:35:39;;;;;;;8.10;3.47;;;;;;;;;;5071721;28;20047;-75
2022/01/22 12:40:58;;;;;;;8.07;3.58;;;;;;;;;;5056864;28;20418;-75
2022/01/22 12:43:30;;;;;;;8.95;4.13;;;;;;;;;;5025813;28;20103;-75
2022/01/22 12:45:56;;;;;;;6.80;2.70;;;;;;;;;;5041785;28;20032;-75
2022/01/22 12:48:22;;;;;;;10.32;3.60;;;;;;;;;;5005492;28;20047;-75
2022/01/22 12:50:47;;;;;;;10.23;3.45;;;;;;;;;;5012174;28;20506;-75
2022/01/22 12:53:14;;;;;;;8.40;3.90;;;;;;;;;;5022669;28;20403;-75
2022/01/22 12:58:27;;;;;;;11.18;4.05;;;;;;;;;;5044539;28;20036;-74
2022/01/22 13:01:08;;;;;;;9.45;3.13;;;;;;;;;;5017057;28;20040;-74
2022/01/22 13:03:36;;;;;;;10.88;3.67;;;;;;;;;;5054580;28;20041;-74
2022/01/22 13:06:02;;;;;;;9.18;3.25;;;;;;;;;;5020721;28;20087;-74
2022/01/22 13:08:28;;;;;;;9.65;3.60;;;;;;;;;;5020276;28;20029;-74
2022/01/22 13:10:55;;;;;;;10.93;3.35;;;;;;;;;;5004147;28;20090;-74
2022/01/22 13:13:20;;;;;;;8.55;3.45;;;;;;;;;;5025451;28;20047;-74
2022/01/22 13:15:46;;;;;;;9.43;4.07;;;;;;;;;;5030145;28;20115;-74
2022/01/22 13:18:11;;;;;;;8.80;3.75;;;;;;;;;;5074464;28;20065;-74
2022/01/22 13:20:37;;;;;;;13.15;4.13;;;;;;;;;;5036750;28;20115;-74
2022/01/22 13:23:16;;;;;;;7.57;3.28;;;;;;;;;;5037057;28;20040;-74
2022/01/22 13:25:42;;;;;;;10.02;3.70;;;;;;;;;;5035448;28;20079;-74
2022/01/22 13:28:10;;;;;;;12.13;4.55;;;;;;;;;;5057534;28;20032;-74
2022/01/22 13:30:41;;;;;;;9.50;3.72;;;;;;;;;;5024145;28;20047;-74
2022/01/22 13:33:18;;;;;;;7.53;3.55;;;;;;;;;;5037420;28;20044;-74
2022/01/22 13:38:51;;;;;;;9.40;3.80;;;;;;;;;;5040129;28;20036;-74
2022/01/22 13:49:35;;;;;;;12.40;6.13;;;;;;;;;;5040093;28;20027;-74
2022/01/22 13:52:08;;;;;;;10.45;5.65;;;;;;;;;;5035427;28;20472;-75
2022/01/22 13:54:41;;;;;;;13.98;5.43;;;;;;;;;;5036009;28;20041;-75
2022/01/22 13:57:14;;;;;;;10.10;5.05;;;;;;;;;;5048452;28;20033;-75
2022/01/22 13:59:47;;;;;;;14.48;5.90;;;;;;;;;;5023553;28;20521;-75
2022/01/22 14:04:54;;;;;;;10.05;4.38;;;;;;;;;;5040341;28;20047;-74
2022/01/22 14:07:25;;;;;;;7.28;4.30;;;;;;;;;;5039219;28;20032;-75
2022/01/22 14:09:56;;;;;;;11.10;4.25;;;;;;;;;;5056167;28;20032;-75
2022/01/22 14:12:32;;;;;;;7.15;3.85;;;;;;;;;;5039406;28;20119;-75
2022/01/22 14:15:04;;;;;;;7.90;4.05;;;;;;;;;;5055954;28;20060;-75
2022/01/22 14:17:38;;;;;;;;;;;;;;;;;;5055943;28;20558;-75
2022/01/22 14:20:08;;;;;;;6.72;3.80;;;;;;;;;;5039388;28;20426;-75
2022/01/22 14:22:52;;;;;;;12.75;3.85;;;;;;;;;;5054134;28;20036;-75
2022/01/22 14:25:18;;;;;;;9.13;3.88;;;;;;;;;;5055563;28;20040;-75
2022/01/22 14:28:03;;;;;;;8.15;2.97;;;;;;;;;;5047549;28;20039;-75
2022/01/22 14:30:33;;;;;;;6.15;3.28;;;;;;;;;;5039962;28;20033;-75
2022/01/22 14:32:58;;;;;;;7.43;3.55;;;;;;;;;;5038930;28;20044;-75
2022/01/22 14:35:24;;;;;;;6.88;3.53;;;;;;;;;;5040162;28;20479;-75
2022/01/22 14:37:53;;;;;;;7.70;3.45;;;;;;;;;;5035038;28;20561;-75
2022/01/22 14:45:58;;;;;;;5.78;3.78;;;;;;;;;;5023708;28;20041;-75
2022/01/22 14:48:25;;;;;;;6.05;3.78;;;;;;;;;;5034847;28;20618;-75
2022/01/22 14:50:51;;;;;;;6.60;3.60;;;;;;;;;;5018360;28;20037;-75
2022/01/22 14:53:16;;;;;;;4.85;2.83;;;;;;;;;;5034804;28;20503;-75
2022/01/22 14:55:49;;;;;;;6.32;3.25;;;;;;;;;;5052574;28;20128;-75
2022/01/22 14:58:15;;;;;;;5.50;3.30;;;;;;;;;;5035048;28;20048;-75
2022/01/22 15:00:40;;;;;;;7.00;3.65;;;;;;;;;;5001554;28;20505;-75
2022/01/22 15:03:06;;;;;;;6.20;3.90;;;;;;;;;;5052256;28;20484;-75
2022/01/22 15:05:31;;;;;;;6.68;3.85;;;;;;;;;;5001517;28;20495;-75
2022/01/22 15:07:56;;;;;;;4.63;2.83;;;;;;;;;;5034435;28;20040;-75
2022/01/22 15:10:22;;;;;;;6.20;3.72;;;;;;;;;;5034636;28;20123;-75
2022/01/22 15:12:48;;;;;;;6.90;3.70;;;;;;;;;;5017973;28;20029;-75
2022/01/22 15:15:14;;;;;;;6.95;3.28;;;;;;;;;;5017640;28;20411;-75
2022/01/22 15:20:13;;;;;;;7.30;3.78;;;;;;;;;;5018622;28;20092;-75
2022/01/22 15:22:39;;;;;;;5.32;3.42;;;;;;;;;;5051697;28;20419;-75
2022/01/22 15:25:04;;;;;;;6.82;3.55;;;;;;;;;;5017910;28;20084;-75
2022/01/22 15:27:30;;;;;;;4.68;2.97;;;;;;;;;;5018910;28;20029;-75
2022/01/22 15:35:00;;;;;;;7.70;3.72;;;;;;;;;;5033624;28;20072;-75
2022/01/22 15:37:26;;;;;;;6.03;3.50;;;;;;;;;;5051048;28;20057;-75
2022/01/22 15:39:51;;;;;;;5.45;3.20;;;;;;;;;;5033955;28;20045;-75
2022/01/22 15:42:17;;;;;;;4.07;3.08;;;;;;;;;;5050448;28;20029;-75
2022/01/22 15:44:42;;;;;;;4.85;3.03;;;;;;;;;;5050459;28;20040;-75
2022/01/22 15:47:08;;;;;;;6.82;3.03;;;;;;;;;;5034139;28;20040;-75
2022/01/22 15:49:33;;;;;;;5.80;3.28;;;;;;;;;;5050479;28;20459;-75
2022/01/22 15:51:59;;;;;;;4.72;2.85;;;;;;;;;;5033424;28;20064;-75
2022/01/22 15:54:24;;;;;;;5.50;2.72;;;;;;;;;;5033632;28;20049;-74
2022/01/22 15:56:52;;;;;;;4.25;2.80;;;;;;;;;;5050324;28;20041;-75
2022/01/22 15:59:19;;;;;;;4.80;3.20;;;;;;;;;;5050347;28;20048;-75
2022/01/22 16:01:45;;;;;;;4.32;3.05;;;;;;;;;;5034231;28;20044;-74
2022/01/22 16:04:10;;;;;;;4.95;2.67;;;;;;;;;;5033437;28;20033;-75
2022/01/22 16:06:46;;;;;;;5.40;3.00;;;;;;;;;;5050570;28;20041;-75
2022/01/22 16:09:16;;;;;;;3.97;2.70;;;;;;;;;;5050647;28;20072;-75
2022/01/22 16:11:41;;;;;;;4.78;3.17;;;;;;;;;;5050245;28;20083;-75
2022/01/22 16:14:07;;;;;;;5.82;2.97;;;;;;;;;;5050009;28;20041;-75
2022/01/22 16:16:33;;;;;;;3.20;2.60;;;;;;;;;;5050244;28;20170;-75
2022/01/22 16:18:59;;;;;;;4.40;2.92;;;;;;;;;;5049757;28;20466;-75
2022/01/22 16:21:24;;;;;;;4.07;2.85;;;;;;;;;;5050082;28;20042;-75
2022/01/22 16:23:49;;;;;;;5.15;3.38;;;;;;;;;;5052362;28;20044;-75
2022/01/22 16:26:15;;;;;;;4.55;3.05;;;;;;;;;;5053559;28;20033;-75
2022/01/22 16:28:41;;;;;;;4.82;2.72;;;;;;;;;;5036383;28;20066;-75
2022/01/22 16:31:06;;;;;;;4.57;3.22;;;;;;;;;;5037110;28;20487;-75
2022/01/22 16:33:31;;;;;;;4.05;2.95;;;;;;;;;;5036413;28;20074;-75
2022/01/22 16:35:57;;;;;;;4.82;2.95;;;;;;;;;;5033980;28;20537;-75
2022/01/22 16:38:22;;;;;;;3.80;2.88;;;;;;;;;;5033501;28;20045;-74
2022/01/22 16:40:48;;;;;;;6.55;3.25;;;;;;;;;;5051841;28;20041;-75
2022/01/22 16:43:14;;;;;;;5.60;3.28;;;;;;;;;;5053189;28;20391;-75
2022/01/22 16:46:08;;;;;;;4.65;2.92;;;;;;;;;;5053087;28;20032;-75
2022/01/22 16:51:21;;;;;;;8.07;3.85;;;;;;;;;;5041753;28;20029;-75
2022/01/22 16:56:21;;;;;;;6.05;3.08;;;;;;;;;;5038042;28;20078;-75
2022/01/22 16:58:49;;;;;;;4.63;3.20;;;;;;;;;;5037059;28;20494;-75
2022/01/22 17:01:25;;;;;;;5.40;3.00;;;;;;;;;;5020753;28;20067;-75
2022/01/22 17:03:52;;;;;;;5.38;3.88;;;;;;;;;;5040373;28;20044;-75
2022/01/22 17:06:18;;;;;;;4.63;3.53;;;;;;;;;;5057110;28;20043;-75
2022/01/22 17:08:45;;;;;;;3.95;3.40;;;;;;;;;;5040226;28;20044;-75